Terminal Aerodrome Forecast
Issued by NWS Shreveport, LA

Home | Current Version | Previous Version | Text Only | Print | Product List | Glossary On
Versions: 1 2 3 4 5 6 7 8 9 10 11 12 13 14 15 16
000
FTUS44 KSHV 232055 AAB
TAFSHV
TAF AMD
KSHV 232055Z 2321/2418 VRB03KT P6SM VCTS SCT040 BKN080CB
      TEMPO 2321/2323 4SM TSRA BR OVC030CB
     FM240300 VRB03KT P6SM SCT050 BKN250=

USA.gov is the U.S. government's official web portal to all federal, state and local government web resources and services.